Frankfurt-Hahn Airport EDFH

Flugplatz Daten

Name: Frankfurt-Hahn Airport

Ident: EDFH

Lat: 49,94869995

Long: 7,26388979

Platzhöhe: 1649 ft

IataCode: HHN

City: Hahn

Metar

2022/08/10 19:20
EDFH 101920Z 08003KT 030V120 CAVOK 22/07 Q1023

Taf

2022/08/10 18:27
TAF EDFH 101700Z 1018/1118 09009KT CAVOK
Gewünschte Webcam nicht vorhanden? Dann fügen Sie eine hinzu. Sie wird dann so schnell wie möglich freigeschaltet
Url: Title: